createdAt,value
2023-03-23T15:59:50.648Z,5.63
2023-03-23T16:03:01.418Z,7.15
2023-03-23T16:09:19.383Z,7.90
2023-03-23T16:12:21.953Z,8.05
2023-03-23T16:15:24.516Z,5.82
2023-03-23T16:18:27.494Z,8.88
2023-03-23T16:21:30.211Z,7.78
2023-03-23T16:24:33.146Z,6.88
2023-03-23T16:27:36.472Z,6.95
2023-03-23T16:30:40.052Z,8.65
2023-03-23T16:33:42.826Z,5.40
2023-03-23T16:36:45.766Z,4.75
2023-03-23T16:39:48.444Z,9.27
2023-03-23T16:42:51.311Z,5.43
2023-03-23T16:45:57.446Z,7.15
2023-03-23T16:49:01.427Z,7.40
2023-03-23T16:52:03.999Z,7.22
2023-03-23T16:55:07.153Z,10.20
2023-03-23T16:58:17.081Z,6.95
2023-03-23T17:04:23.611Z,7.57
2023-03-23T17:07:26.261Z,9.02
2023-03-23T17:10:29.756Z,8.50
2023-03-23T17:13:32.653Z,9.02
2023-03-23T17:16:35.321Z,10.40
2023-03-23T17:19:38.116Z,10.60
2023-03-23T17:22:41.130Z,10.20
2023-03-23T17:25:50.535Z,11.68
2023-03-23T17:28:53.305Z,11.85
2023-03-23T17:31:56.166Z,10.95
2023-03-23T17:35:00.353Z,15.30
2023-03-23T17:38:04.370Z,10.15
2023-03-23T17:41:32.260Z,12.95
2023-03-23T17:44:35.126Z,8.27
2023-03-23T17:47:38.658Z,7.47
2023-03-23T17:50:41.650Z,11.52
2023-03-23T17:53:45.915Z,7.20
2023-03-23T17:56:50.208Z,8.55
2023-03-23T17:59:53.871Z,8.55
2023-03-23T18:02:57.124Z,7.32
2023-03-23T18:06:03.272Z,11.63
2023-03-23T18:09:06.461Z,10.82
2023-03-23T18:12:09.976Z,9.13
2023-03-23T18:15:13.320Z,11.48
2023-03-23T18:18:16.604Z,9.18
2023-03-23T18:21:20.111Z,11.38
2023-03-23T18:24:24.180Z,11.77
2023-03-23T18:27:29.304Z,12.00
2023-03-23T18:30:34.032Z,16.60
2023-03-23T18:33:38.670Z,14.90
2023-03-23T18:36:42.296Z,14.50
2023-03-23T18:39:47.231Z,14.77
2023-03-23T18:42:51.266Z,18.80
2023-03-23T18:45:57.238Z,12.25
2023-03-23T18:49:01.112Z,17.25
2023-03-23T18:52:05.185Z,26.83
2023-03-23T18:55:10.335Z,34.45
2023-03-23T18:58:15.552Z,18.77
2023-03-23T19:01:19.777Z,17.33
2023-03-23T19:04:27.212Z,25.38
2023-03-23T19:07:32.215Z,18.25
2023-03-23T19:10:42.794Z,26.88
2023-03-23T19:13:57.953Z,26.75
2023-03-23T19:17:02.110Z,18.80
2023-03-23T19:20:14.634Z,20.98
2023-03-23T19:23:23.961Z,20.13
2023-03-23T19:26:33.915Z,19.88
2023-03-23T19:29:40.065Z,22.35
2023-03-23T19:32:43.632Z,22.10
2023-03-23T19:36:05.874Z,20.55
2023-03-23T19:39:16.473Z,20.10
2023-03-23T19:42:22.650Z,21.70
2023-03-23T19:45:26.864Z,24.27
2023-03-23T19:48:31.760Z,22.55
2023-03-23T19:51:36.427Z,26.98
2023-03-23T19:54:41.035Z,26.30
2023-03-23T20:00:49.181Z,32.70
2023-03-23T20:03:52.670Z,29.00
2023-03-23T20:07:00.033Z,27.90
2023-03-23T20:10:06.193Z,25.08
2023-03-23T20:13:12.422Z,24.23
2023-03-23T20:16:37.390Z,25.88
2023-03-23T20:19:42.225Z,21.15
2023-03-23T20:22:46.312Z,15.20
2023-03-23T20:25:50.359Z,19.02
2023-03-23T20:32:07.452Z,12.05
2023-03-23T20:35:11.679Z,24.42
2023-03-23T20:38:16.850Z,23.27
2023-03-23T20:41:21.257Z,20.50
2023-03-23T20:44:28.280Z,40.00
2023-03-23T20:47:33.761Z,18.40
2023-03-23T20:50:37.789Z,15.02
2023-03-23T20:53:41.615Z,14.32
2023-03-23T20:56:46.268Z,16.02
2023-03-23T20:59:51.518Z,15.90
2023-03-23T21:02:56.110Z,19.60
2023-03-23T21:05:59.360Z,18.17
2023-03-23T21:09:03.706Z,20.45
2023-03-23T21:12:10.078Z,22.27
2023-03-23T21:15:13.686Z,21.30
2023-03-23T21:18:17.083Z,15.40
2023-03-23T21:21:20.196Z,15.05
2023-03-23T21:24:28.591Z,17.50
2023-03-23T21:27:31.422Z,15.70
2023-03-23T21:30:34.099Z,14.60
2023-03-23T21:33:37.298Z,14.35
2023-03-23T21:36:40.306Z,21.40
2023-03-23T21:39:43.064Z,14.90
2023-03-23T21:42:48.961Z,22.15
2023-03-23T21:45:55.988Z,21.17
2023-03-23T21:48:59.165Z,16.73
2023-03-23T21:52:02.801Z,21.20
2023-03-23T21:55:06.258Z,13.20
2023-03-23T21:58:09.789Z,14.48
2023-03-23T22:01:13.117Z,24.27
2023-03-23T22:04:17.147Z,15.75
2023-03-23T22:07:23.167Z,14.93
2023-03-23T22:10:26.038Z,14.88
2023-03-23T22:13:31.554Z,18.40
2023-03-23T22:16:34.874Z,20.92
2023-03-23T22:19:37.614Z,22.30
2023-03-23T22:22:40.559Z,20.90
2023-03-23T22:25:43.477Z,19.48
2023-03-23T22:28:47.652Z,14.73
2023-03-23T22:31:50.939Z,18.38
2023-03-23T22:34:53.676Z,16.08
2023-03-23T22:37:56.287Z,16.80
2023-03-23T22:41:02.418Z,18.42
2023-03-23T22:44:07.886Z,17.40
2023-03-23T22:47:10.385Z,19.20
2023-03-23T22:50:12.963Z,20.23
2023-03-23T22:53:18.121Z,21.45
2023-03-23T22:56:21.499Z,18.55
2023-03-23T22:59:24.157Z,22.20
2023-03-23T23:02:26.991Z,18.17
2023-03-23T23:05:29.619Z,18.77
2023-03-23T23:08:32.976Z,15.98
2023-03-23T23:11:35.587Z,16.90
2023-03-23T23:14:43.283Z,21.05
2023-03-23T23:17:46.176Z,16.23
2023-03-23T23:20:54.848Z,17.80
2023-03-23T23:23:58.093Z,17.55
2023-03-23T23:27:00.916Z,23.13
2023-03-23T23:30:06.674Z,20.25
2023-03-23T23:33:09.551Z,19.33
2023-03-23T23:36:12.346Z,17.25
2023-03-23T23:39:15.480Z,22.30
2023-03-23T23:42:18.067Z,19.45
2023-03-23T23:45:23.029Z,18.10
2023-03-23T23:48:25.697Z,17.25
2023-03-23T23:51:29.478Z,20.48
2023-03-23T23:54:32.146Z,18.50
2023-03-23T23:57:35.145Z,18.50
